createdAt,value
2022-12-23T00:01:05.464Z,100698.28
2022-12-23T00:04:07.247Z,100702.19
2022-12-23T00:07:09.082Z,100699.31
2022-12-23T00:10:11.100Z,100696.44
2022-12-23T00:13:31.217Z,100685.97
2022-12-23T00:16:36.092Z,100675.25
2022-12-23T00:19:37.942Z,100661.91
2022-12-23T00:22:58.567Z,100662.97
2022-12-23T00:26:00.889Z,100664.28
2022-12-23T00:29:02.738Z,100661.66
2022-12-23T00:32:04.863Z,100658.78
2022-12-23T00:35:06.832Z,100667.94
2022-12-23T00:38:08.574Z,100664.81
2022-12-23T00:41:37.208Z,100661.66
2022-12-23T00:44:38.860Z,100664.00
2022-12-23T00:47:59.183Z,100664.81
2022-12-23T00:51:00.967Z,100663.78
2022-12-23T00:54:03.211Z,100655.13
2022-12-23T00:57:04.978Z,100651.75
2022-12-23T01:00:07.375Z,100652.50
2022-12-23T01:03:32.847Z,100653.28
2022-12-23T01:06:34.860Z,100650.69
2022-12-23T01:09:36.693Z,100654.88
2022-12-23T01:12:38.382Z,100648.84
2022-12-23T01:15:40.119Z,100644.66
2022-12-23T01:18:41.924Z,100641.50
2022-12-23T01:21:43.763Z,100632.56
2022-12-23T01:24:45.692Z,100634.94
2022-12-23T01:27:47.394Z,100629.41
2022-12-23T01:30:49.165Z,100638.84
2022-12-23T01:33:51.715Z,100648.25
2022-12-23T01:36:53.476Z,100655.88
2022-12-23T01:39:55.176Z,100644.88
2022-12-23T01:42:56.792Z,100648.56
2022-12-23T01:45:58.527Z,100655.38
2022-12-23T01:49:00.262Z,100653.78
2022-12-23T01:52:02.118Z,100653.28
2022-12-23T01:55:04.141Z,100637.56
2022-12-23T01:58:13.173Z,100643.31
2022-12-23T02:01:33.724Z,100635.75
2022-12-23T02:04:35.546Z,100628.94
2022-12-23T02:07:55.751Z,100628.94
2022-12-23T02:11:15.277Z,100636.56
2022-12-23T02:14:54.333Z,100630.00
2022-12-23T02:17:55.963Z,100624.78
2022-12-23T02:21:22.419Z,100630.25
2022-12-23T02:24:57.889Z,100635.97
2022-12-23T02:28:35.707Z,100626.81
2022-12-23T02:31:57.609Z,100620.50
2022-12-23T02:35:45.185Z,100616.81
2022-12-23T02:38:49.647Z,100624.41
2022-12-23T02:42:02.296Z,100624.41
2022-12-23T02:45:21.867Z,100616.81
2022-12-23T02:48:23.631Z,100618.13
2022-12-23T02:51:31.811Z,100602.16
2022-12-23T02:54:39.885Z,100602.97
2022-12-23T02:57:46.991Z,100597.44
2022-12-23T03:00:50.643Z,100599.75
2022-12-23T03:03:52.382Z,100605.00
2022-12-23T03:06:55.860Z,100600.28
2022-12-23T03:10:00.546Z,100610.47
2022-12-23T03:13:43.796Z,100607.31
2022-12-23T03:17:29.755Z,100605.22
2022-12-23T03:20:59.152Z,100595.78
2022-12-23T03:24:07.533Z,100585.88
2022-12-23T03:27:24.906Z,100594.28
2022-12-23T03:30:28.845Z,100588.00
2022-12-23T03:33:44.723Z,100588.53
2022-12-23T03:36:51.487Z,100582.25
2022-12-23T03:40:00.372Z,100581.47
2022-12-23T03:43:09.137Z,100584.59
2022-12-23T03:46:30.111Z,100590.88
2022-12-23T03:49:40.032Z,100585.91
2022-12-23T03:53:05.125Z,100591.94
2022-12-23T03:56:10.632Z,100589.81
2022-12-23T03:59:17.471Z,100590.03
2022-12-23T04:02:32.930Z,100596.56
2022-12-23T04:05:41.010Z,100593.94
2022-12-23T04:08:44.806Z,100596.25
2022-12-23T04:11:46.565Z,100593.16
2022-12-23T04:14:49.250Z,100589.00
2022-12-23T04:17:52.489Z,100592.09
2022-12-23T04:20:59.283Z,100588.19
2022-12-23T04:24:00.940Z,100587.91
2022-12-23T04:27:02.656Z,100583.75
2022-12-23T04:30:06.231Z,100587.91
2022-12-23T04:33:10.715Z,100591.84
2022-12-23T04:36:12.357Z,100587.66
2022-12-23T04:39:14.229Z,100598.34
2022-12-23T04:42:15.890Z,100595.97
2022-12-23T04:45:17.759Z,100586.00
2022-12-23T04:48:19.672Z,100585.47
2022-12-23T04:51:21.464Z,100576.56
2022-12-23T04:54:23.128Z,100573.44
2022-12-23T04:57:24.820Z,100582.34
2022-12-23T05:00:38.973Z,100580.28
2022-12-23T05:03:41.823Z,100581.38
2022-12-23T05:06:43.497Z,100579.06
2022-12-23T05:09:45.233Z,100590.88
2022-12-23T05:12:46.920Z,100598.22
2022-12-23T05:15:53.977Z,100589.84
2022-12-23T05:18:55.677Z,100609.78
2022-12-23T05:21:57.352Z,100601.69
2022-12-23T05:24:59.021Z,100601.94
2022-12-23T05:28:00.726Z,100601.69
2022-12-23T05:31:08.198Z,100607.19
2022-12-23T05:34:09.980Z,100600.38
2022-12-23T05:37:11.702Z,100601.97
2022-12-23T05:40:18.463Z,100587.28
2022-12-23T05:43:23.421Z,100584.44
2022-12-23T05:46:27.021Z,100590.72
2022-12-23T05:49:29.124Z,100595.19
2022-12-23T05:52:30.886Z,100597.25
2022-12-23T05:55:32.628Z,100608.00
2022-12-23T05:58:34.390Z,100601.75
2022-12-23T06:01:36.293Z,100606.47
2022-12-23T06:04:38.053Z,100615.88
2022-12-23T06:07:40.670Z,100602.78
2022-12-23T06:10:46.921Z,100605.91
2022-12-23T06:13:48.647Z,100614.84
2022-12-23T06:16:51.592Z,100632.63
2022-12-23T06:19:53.395Z,100626.88
2022-12-23T06:22:55.106Z,100632.88
2022-12-23T06:26:03.091Z,100636.28
2022-12-23T06:29:04.829Z,100647.81
2022-12-23T06:32:06.750Z,100650.69
2022-12-23T06:35:09.117Z,100656.69
2022-12-23T06:38:12.413Z,100651.19
2022-12-23T06:41:14.742Z,100653.28
2022-12-23T06:44:16.616Z,100663.47
2022-12-23T06:47:18.357Z,100664.03
2022-12-23T06:50:20.608Z,100662.97
2022-12-23T06:53:22.931Z,100650.16
2022-12-23T06:56:24.657Z,100657.47
2022-12-23T06:59:27.030Z,100655.13
2022-12-23T07:02:28.967Z,100657.22
2022-12-23T07:05:36.923Z,100652.50
2022-12-23T07:08:39.583Z,100657.22
2022-12-23T07:11:41.296Z,100661.41
2022-12-23T07:14:43.086Z,100661.66
2022-12-23T07:17:44.712Z,100664.03
2022-12-23T07:20:46.510Z,100668.19
2022-12-23T07:23:48.349Z,100673.19
2022-12-23T07:26:51.893Z,100669.78
2022-12-23T07:29:53.565Z,100669.00
2022-12-23T07:32:55.374Z,100669.75
2022-12-23T07:35:59.877Z,100677.34
2022-12-23T07:39:01.621Z,100675.25
2022-12-23T07:42:33.499Z,100664.81
2022-12-23T07:45:26.220Z,100652.78
2022-12-23T07:48:27.988Z,100658.28
2022-12-23T07:51:30.210Z,100655.13
2022-12-23T07:54:31.867Z,100660.09
2022-12-23T07:57:38.219Z,100656.41
2022-12-23T08:00:44.620Z,100645.44
2022-12-23T08:03:47.409Z,100649.91
2022-12-23T08:06:49.107Z,100644.69
2022-12-23T08:09:50.939Z,100649.59
2022-12-23T08:12:52.729Z,100649.09
2022-12-23T08:15:56.278Z,100644.13
2022-12-23T08:18:57.947Z,100647.78
2022-12-23T08:21:59.694Z,100658.53
2022-12-23T08:25:02.031Z,100657.22
2022-12-23T08:28:03.977Z,100639.94
2022-12-23T08:31:19.336Z,100641.53
2022-12-23T08:34:21.077Z,100655.66
2022-12-23T08:37:22.781Z,100651.72
2022-12-23T08:40:27.585Z,100666.63
2022-12-23T08:43:35.577Z,100681.81
2022-12-23T08:46:38.311Z,100692.78
2022-12-23T08:49:40.068Z,100686.75
2022-12-23T08:52:41.759Z,100669.75
2022-12-23T08:55:45.812Z,100675.53
2022-12-23T08:58:50.568Z,100676.03
2022-12-23T09:01:52.408Z,100674.22
2022-12-23T09:04:54.416Z,100661.13
2022-12-23T09:07:56.329Z,100663.22
2022-12-23T09:10:58.039Z,100663.22
2022-12-23T09:14:01.332Z,100648.78
2022-12-23T09:17:03.022Z,100646.94
2022-12-23T09:20:05.437Z,100635.13
2022-12-23T09:23:07.523Z,100630.63
2022-12-23T09:26:22.236Z,100620.41
2022-12-23T09:29:25.616Z,100613.56
2022-12-23T09:32:27.601Z,100605.31
2022-12-23T09:35:29.392Z,100595.56
2022-12-23T09:38:32.278Z,100599.22
2022-12-23T09:41:51.999Z,100611.16
2022-12-23T09:45:11.962Z,100618.25
2022-12-23T09:48:28.460Z,100627.41
2022-12-23T09:51:30.980Z,100622.41
2022-12-23T09:54:45.914Z,100614.56
2022-12-23T09:57:56.208Z,100602.56
2022-12-23T10:01:13.711Z,100604.38
2022-12-23T10:04:33.796Z,100606.69
2022-12-23T10:07:55.455Z,100614.06
2022-12-23T10:11:06.630Z,100614.06
2022-12-23T10:14:20.379Z,100610.44
2022-12-23T10:17:51.193Z,100608.34
2022-12-23T10:21:04.337Z,100602.13
2022-12-23T10:24:16.715Z,100594.66
2022-12-23T10:27:29.223Z,100595.69
2022-12-23T10:31:23.306Z,100596.13
2022-12-23T10:34:11.912Z,100592.41
2022-12-23T10:37:25.725Z,100579.84
2022-12-23T10:40:42.994Z,100572.50
2022-12-23T10:44:02.600Z,100556.53
2022-12-23T10:47:19.974Z,100540.94
2022-12-23T10:50:46.237Z,100546.06
2022-12-23T10:53:56.636Z,100534.97
2022-12-23T10:56:58.832Z,100552.00
2022-12-23T11:00:00.837Z,100540.50
2022-12-23T11:03:18.762Z,100547.31
2022-12-23T11:06:21.326Z,100551.78
2022-12-23T11:09:28.061Z,100542.63
2022-12-23T11:13:02.304Z,100553.06
2022-12-23T11:16:15.833Z,100550.13
2022-12-23T11:19:17.571Z,100553.16
2022-12-23T11:22:25.419Z,100534.78
2022-12-23T11:25:41.329Z,100518.47
2022-12-23T11:28:59.110Z,100517.88
2022-12-23T11:32:04.971Z,100500.22
2022-12-23T11:35:31.845Z,100504.78
2022-12-23T11:38:46.970Z,100496.13
2022-12-23T11:41:52.543Z,100501.28
2022-12-23T11:44:56.435Z,100494.34
2022-12-23T11:47:58.132Z,100487.75
2022-12-23T11:51:01.998Z,100479.31
2022-12-23T11:54:03.941Z,100479.97
2022-12-23T11:57:16.937Z,100478.75
2022-12-23T12:00:26.356Z,100472.88
2022-12-23T12:03:32.114Z,100476.81
2022-12-23T12:06:34.304Z,100478.41
2022-12-23T12:09:40.485Z,100478.75
2022-12-23T12:12:43.109Z,100479.03
2022-12-23T12:16:09.118Z,100477.88
2022-12-23T12:19:25.085Z,100470.19
2022-12-23T12:22:39.693Z,100475.91
2022-12-23T12:25:47.614Z,100478.78
2022-12-23T12:29:21.641Z,100465.56
2022-12-23T12:32:41.529Z,100469.94
2022-12-23T12:36:18.667Z,100462.81
2022-12-23T12:39:33.956Z,100459.34
2022-12-23T12:42:44.325Z,100464.78
2022-12-23T12:45:53.129Z,100466.84
2022-12-23T12:49:04.136Z,100460.34
2022-12-23T12:52:16.236Z,100481.94
2022-12-23T12:55:29.630Z,100464.91
2022-12-23T12:58:31.370Z,100475.09
2022-12-23T13:01:42.696Z,100480.31
2022-12-23T13:05:12.756Z,100461.22
2022-12-23T13:09:10.854Z,100458.53
2022-12-23T13:12:44.169Z,100470.63
2022-12-23T13:15:58.149Z,100459.81
2022-12-23T13:19:15.634Z,100456.31
2022-12-23T13:22:24.910Z,100455.66
2022-12-23T13:25:41.308Z,100455.66
2022-12-23T13:28:52.352Z,100468.75
2022-12-23T13:32:20.981Z,100464.59
2022-12-23T13:35:40.361Z,100464.81
2022-12-23T13:39:01.485Z,100471.84
2022-12-23T13:42:06.302Z,100472.19
2022-12-23T13:45:15.353Z,100473.94
2022-12-23T13:48:38.849Z,100471.09
2022-12-23T13:51:56.155Z,100479.97
2022-12-23T13:55:07.607Z,100470.38
2022-12-23T13:58:20.229Z,100481.44
2022-12-23T14:01:40.303Z,100483.88
2022-12-23T14:05:03.581Z,100487.41
2022-12-23T14:08:19.914Z,100494.25
2022-12-23T14:11:25.520Z,100496.88
2022-12-23T14:14:28.265Z,100500.66
2022-12-23T14:18:04.879Z,100492.53
2022-12-23T14:21:36.561Z,100487.22
2022-12-23T14:24:59.828Z,100490.94
2022-12-23T14:28:22.746Z,100499.13
2022-12-23T14:31:33.882Z,100506.97
2022-12-23T14:34:36.199Z,100500.47
2022-12-23T14:37:37.925Z,100498.56
2022-12-23T14:40:43.150Z,100510.28
2022-12-23T14:43:44.755Z,100516.31
2022-12-23T14:46:46.428Z,100517.31
2022-12-23T14:49:48.593Z,100510.97
2022-12-23T14:53:00.273Z,100507.84
2022-12-23T14:56:21.649Z,100505.72
2022-12-23T14:59:52.069Z,100503.91
2022-12-23T15:02:58.333Z,100502.13
2022-12-23T15:06:05.109Z,100506.88
2022-12-23T15:09:09.476Z,100508.22
2022-12-23T15:12:19.823Z,100514.75
2022-12-23T15:15:30.079Z,100510.78
2022-12-23T15:18:31.806Z,100502.16
2022-12-23T15:21:36.150Z,100515.59
2022-12-23T15:24:41.803Z,100502.00
2022-12-23T15:27:43.628Z,100503.56
2022-12-23T15:30:51.107Z,100507.03
2022-12-23T15:34:04.037Z,100498.06
2022-12-23T15:37:11.646Z,100500.19
2022-12-23T15:40:27.011Z,100497.81
2022-12-23T15:43:29.234Z,100494.34
2022-12-23T15:46:31.877Z,100495.69
2022-12-23T15:49:33.599Z,100495.44
2022-12-23T15:52:35.301Z,100495.44
2022-12-23T15:55:41.258Z,100495.63
2022-12-23T15:58:43.766Z,100497.72
2022-12-23T16:01:45.563Z,100500.19
2022-12-23T16:04:56.239Z,100495.47
2022-12-23T16:08:24.643Z,100496.75
2022-12-23T16:11:40.625Z,100488.09
2022-12-23T16:14:49.696Z,100493.00
2022-12-23T16:17:51.449Z,100500.34
2022-12-23T16:21:04.064Z,100501.13
2022-12-23T16:24:09.675Z,100504.19
2022-12-23T16:27:15.512Z,100499.19
2022-12-23T16:30:22.465Z,100502.56
2022-12-23T16:33:43.316Z,100501.31
2022-12-23T16:36:45.075Z,100505.22
2022-12-23T16:39:47.173Z,100488.69
2022-12-23T16:42:48.949Z,100478.50
2022-12-23T16:45:54.240Z,100479.81
2022-12-23T16:48:59.310Z,100482.50
2022-12-23T16:52:02.194Z,100475.97
2022-12-23T16:55:12.383Z,100465.03
2022-12-23T16:58:14.168Z,100464.03
2022-12-23T17:01:20.932Z,100473.19
2022-12-23T17:04:22.896Z,100473.75
2022-12-23T17:07:26.399Z,100476.31
2022-12-23T17:10:29.367Z,100470.34
2022-12-23T17:13:31.167Z,100462.75
2022-12-23T17:16:33.264Z,100474.03
2022-12-23T17:19:35.002Z,100472.50
2022-12-23T17:22:37.628Z,100476.97
2022-12-23T17:25:39.299Z,100484.38
2022-12-23T17:28:41.202Z,100481.56
2022-12-23T17:31:44.710Z,100481.91
2022-12-23T17:34:46.633Z,100468.91
2022-12-23T17:37:48.545Z,100474.75
2022-12-23T17:40:51.923Z,100467.41
2022-12-23T17:43:53.683Z,100472.16
2022-12-23T17:46:55.377Z,100463.47
2022-12-23T17:49:57.119Z,100469.53
2022-12-23T17:52:58.809Z,100471.59
2022-12-23T17:56:00.447Z,100470.53
2022-12-23T17:59:02.093Z,100472.41
2022-12-23T18:02:30.701Z,100465.84
2022-12-23T18:05:34.787Z,100459.28
2022-12-23T18:08:36.488Z,100461.13
2022-12-23T18:11:44.809Z,100461.34
2022-12-23T18:14:46.737Z,100456.09
2022-12-23T18:17:50.003Z,100454.50
2022-12-23T18:20:57.364Z,100457.03
2022-12-23T18:23:59.792Z,100446.72
2022-12-23T18:27:01.858Z,100447.19
2022-12-23T18:30:04.052Z,100431.78
2022-12-23T18:33:08.705Z,100448.75
2022-12-23T18:36:31.277Z,100455.81
2022-12-23T18:39:33.061Z,100464.19
2022-12-23T18:42:34.821Z,100467.38
2022-12-23T18:45:39.033Z,100471.06
2022-12-23T18:48:40.762Z,100478.13
2022-12-23T18:51:42.428Z,100475.47
2022-12-23T18:54:44.129Z,100482.09
2022-12-23T18:57:47.149Z,100486.34
2022-12-23T19:00:50.945Z,100482.94
2022-12-23T19:03:52.613Z,100465.63
2022-12-23T19:06:55.926Z,100474.22
2022-12-23T19:09:57.652Z,100473.69
2022-12-23T19:13:00.590Z,100480.16
2022-12-23T19:16:02.462Z,100483.47
2022-12-23T19:19:04.328Z,100481.34
2022-12-23T19:22:06.102Z,100476.59
2022-12-23T19:25:09.451Z,100484.69
2022-12-23T19:28:12.076Z,100485.47
2022-12-23T19:31:15.449Z,100485.19
2022-12-23T19:34:17.393Z,100477.63
2022-12-23T19:37:19.100Z,100472.38
2022-12-23T19:40:22.316Z,100480.69
2022-12-23T19:43:24.077Z,100483.47
2022-12-23T19:46:25.964Z,100482.69
2022-12-23T19:49:27.776Z,100477.72
2022-12-23T19:52:29.576Z,100475.44
2022-12-23T19:55:31.369Z,100476.28
2022-12-23T19:58:37.578Z,100484.16
2022-12-23T20:01:39.372Z,100499.50
2022-12-23T20:04:41.829Z,100507.72
2022-12-23T20:07:43.590Z,100503.56
2022-12-23T20:10:46.452Z,100498.06
2022-12-23T20:13:55.544Z,100489.50
2022-12-23T20:16:57.233Z,100496.63
2022-12-23T20:19:58.964Z,100492.16
2022-12-23T20:23:00.870Z,100488.59
2022-12-23T20:26:03.676Z,100486.13
2022-12-23T20:29:05.730Z,100491.06
2022-12-23T20:32:07.640Z,100490.72
2022-12-23T20:35:09.612Z,100486.88
2022-12-23T20:38:11.305Z,100507.59
2022-12-23T20:41:19.607Z,100507.66
2022-12-23T20:44:38.520Z,100507.34
2022-12-23T20:47:40.161Z,100507.06
2022-12-23T20:50:50.178Z,100502.41
2022-12-23T20:53:54.588Z,100513.88
2022-12-23T20:56:56.245Z,100515.47
2022-12-23T20:59:57.957Z,100514.16
2022-12-23T21:03:01.614Z,100516.72
2022-12-23T21:06:08.348Z,100517.56
2022-12-23T21:09:13.101Z,100519.19
2022-12-23T21:12:14.842Z,100515.72
2022-12-23T21:15:16.914Z,100510.81
2022-12-23T21:18:18.764Z,100505.78
2022-12-23T21:21:23.616Z,100501.22
2022-12-23T21:24:25.701Z,100492.00
2022-12-23T21:27:27.419Z,100494.91
2022-12-23T21:30:29.379Z,100493.63
2022-12-23T21:33:31.200Z,100487.06
2022-12-23T21:36:36.950Z,100475.81
2022-12-23T21:39:38.693Z,100472.38
2022-12-23T21:42:40.419Z,100462.88
2022-12-23T21:45:42.077Z,100471.72
2022-12-23T21:48:44.496Z,100468.91
2022-12-23T21:51:46.274Z,100448.22
2022-12-23T21:54:47.975Z,100441.31
2022-12-23T21:57:49.646Z,100452.66
2022-12-23T22:00:51.449Z,100457.72
2022-12-23T22:03:54.103Z,100459.59
2022-12-23T22:06:55.799Z,100459.84
2022-12-23T22:09:57.609Z,100447.91
2022-12-23T22:12:59.284Z,100433.47
2022-12-23T22:16:01.008Z,100433.09
2022-12-23T22:19:04.415Z,100435.78
2022-12-23T22:22:06.374Z,100426.09
2022-12-23T22:25:08.383Z,100430.84
2022-12-23T22:28:10.456Z,100430.09
2022-12-23T22:31:17.690Z,100443.31
2022-12-23T22:34:21.881Z,100446.28
2022-12-23T22:37:23.573Z,100445.00
2022-12-23T22:40:25.270Z,100436.63
2022-12-23T22:43:27.141Z,100432.69
2022-12-23T22:46:29.065Z,100431.84
2022-12-23T22:49:30.930Z,100425.00
2022-12-23T22:52:32.825Z,100415.75
2022-12-23T22:55:34.626Z,100416.19
2022-12-23T22:58:36.344Z,100408.31
2022-12-23T23:01:38.657Z,100404.59
2022-12-23T23:04:40.595Z,100402.19
2022-12-23T23:07:42.247Z,100405.59
2022-12-23T23:10:44.239Z,100402.63
2022-12-23T23:13:46.032Z,100394.69
2022-12-23T23:16:47.847Z,100382.16
2022-12-23T23:19:49.838Z,100370.31
2022-12-23T23:22:52.004Z,100391.94
2022-12-23T23:25:53.736Z,100389.59
2022-12-23T23:28:56.174Z,100386.00
2022-12-23T23:31:59.039Z,100381.56
2022-12-23T23:35:08.777Z,100391.56
2022-12-23T23:38:12.291Z,100378.88
2022-12-23T23:41:17.386Z,100372.28
2022-12-23T23:44:23.986Z,100378.53
2022-12-23T23:47:25.823Z,100368.03
2022-12-23T23:50:27.686Z,100369.38
2022-12-23T23:53:29.369Z,100357.75
2022-12-23T23:56:37.889Z,100359.50
2022-12-23T23:59:40.729Z,100360.44
